sensor_id;sensor_type;location;lat;lon;timestamp;P1;durP1;ratioP1;P2;durP2;ratioP2
33206;SDS011;19565;46.602;11.534;2023-07-29T00:00:52;5.13;;;0.98;;
33206;SDS011;19565;46.602;11.534;2023-07-29T00:03:22;0.43;;;0.43;;
33206;SDS011;19565;46.602;11.534;2023-07-29T00:05:52;0.55;;;0.55;;
33206;SDS011;19565;46.602;11.534;2023-07-29T00:08:20;0.65;;;0.57;;
33206;SDS011;19565;46.602;11.534;2023-07-29T00:10:48;4.13;;;0.93;;
33206;SDS011;19565;46.602;11.534;2023-07-29T00:13:16;1.85;;;0.75;;
33206;SDS011;19565;46.602;11.534;2023-07-29T00:15:47;1.20;;;1.10;;
33206;SDS011;19565;46.602;11.534;2023-07-29T00:18:15;0.95;;;0.68;;
33206;SDS011;19565;46.602;11.534;2023-07-29T00:20:44;1.55;;;0.88;;
33206;SDS011;19565;46.602;11.534;2023-07-29T00:23:13;0.93;;;0.52;;
33206;SDS011;19565;46.602;11.534;2023-07-29T00:25:41;0.77;;;0.60;;
33206;SDS011;19565;46.602;11.534;2023-07-29T00:28:09;2.22;;;0.65;;
33206;SDS011;19565;46.602;11.534;2023-07-29T00:30:37;1.17;;;1.10;;
33206;SDS011;19565;46.602;11.534;2023-07-29T00:33:06;1.02;;;0.98;;
33206;SDS011;19565;46.602;11.534;2023-07-29T00:35:34;0.52;;;0.52;;
33206;SDS011;19565;46.602;11.534;2023-07-29T00:38:02;1.65;;;0.80;;
33206;SDS011;19565;46.602;11.534;2023-07-29T00:40:31;0.73;;;0.73;;
33206;SDS011;19565;46.602;11.534;2023-07-29T00:43:03;0.50;;;0.50;;
33206;SDS011;19565;46.602;11.534;2023-07-29T00:45:32;0.70;;;0.57;;
33206;SDS011;19565;46.602;11.534;2023-07-29T00:48:00;1.48;;;0.93;;
33206;SDS011;19565;46.602;11.534;2023-07-29T00:50:30;0.93;;;0.90;;
33206;SDS011;19565;46.602;11.534;2023-07-29T00:52:59;0.98;;;0.65;;
33206;SDS011;19565;46.602;11.534;2023-07-29T00:55:27;1.83;;;1.35;;
33206;SDS011;19565;46.602;11.534;2023-07-29T00:57:57;1.10;;;0.73;;
33206;SDS011;19565;46.602;11.534;2023-07-29T01:00:25;0.60;;;0.57;;
33206;SDS011;19565;46.602;11.534;2023-07-29T01:02:54;0.52;;;0.52;;
33206;SDS011;19565;46.602;11.534;2023-07-29T01:05:22;0.70;;;0.70;;
33206;SDS011;19565;46.602;11.534;2023-07-29T01:07:55;0.50;;;0.50;;
33206;SDS011;19565;46.602;11.534;2023-07-29T01:10:30;1.25;;;0.85;;
33206;SDS011;19565;46.602;11.534;2023-07-29T01:13:16;0.32;;;0.32;;
33206;SDS011;19565;46.602;11.534;2023-07-29T01:15:50;0.38;;;0.38;;
33206;SDS011;19565;46.602;11.534;2023-07-29T01:18:22;1.08;;;0.98;;
33206;SDS011;19565;46.602;11.534;2023-07-29T01:20:53;0.70;;;0.70;;
33206;SDS011;19565;46.602;11.534;2023-07-29T01:23:27;1.52;;;0.80;;
33206;SDS011;19565;46.602;11.534;2023-07-29T01:25:56;0.20;;;0.20;;
33206;SDS011;19565;46.602;11.534;2023-07-29T01:28:25;1.25;;;0.60;;
33206;SDS011;19565;46.602;11.534;2023-07-29T01:30:56;0.28;;;0.28;;
33206;SDS011;19565;46.602;11.534;2023-07-29T01:33:30;3.20;;;1.38;;
33206;SDS011;19565;46.602;11.534;2023-07-29T01:36:03;1.25;;;0.55;;
33206;SDS011;19565;46.602;11.534;2023-07-29T01:38:36;0.68;;;0.40;;
33206;SDS011;19565;46.602;11.534;2023-07-29T01:41:08;0.55;;;0.55;;
33206;SDS011;19565;46.602;11.534;2023-07-29T01:43:37;0.93;;;0.90;;
33206;SDS011;19565;46.602;11.534;2023-07-29T01:46:10;0.65;;;0.52;;
33206;SDS011;19565;46.602;11.534;2023-07-29T01:48:39;0.85;;;0.45;;
33206;SDS011;19565;46.602;11.534;2023-07-29T01:51:07;0.75;;;0.68;;
33206;SDS011;19565;46.602;11.534;2023-07-29T01:53:37;1.65;;;0.98;;
33206;SDS011;19565;46.602;11.534;2023-07-29T01:56:05;1.30;;;1.17;;
33206;SDS011;19565;46.602;11.534;2023-07-29T01:58:33;0.57;;;0.57;;
33206;SDS011;19565;46.602;11.534;2023-07-29T02:01:01;0.30;;;0.30;;
33206;SDS011;19565;46.602;11.534;2023-07-29T02:03:29;0.40;;;0.40;;
33206;SDS011;19565;46.602;11.534;2023-07-29T02:05:57;1.40;;;1.30;;
33206;SDS011;19565;46.602;11.534;2023-07-29T02:08:25;1.77;;;1.55;;
33206;SDS011;19565;46.602;11.534;2023-07-29T02:10:54;1.27;;;0.65;;
33206;SDS011;19565;46.602;11.534;2023-07-29T02:13:22;0.68;;;0.65;;
33206;SDS011;19565;46.602;11.534;2023-07-29T02:15:50;1.08;;;0.52;;
33206;SDS011;19565;46.602;11.534;2023-07-29T02:18:18;0.55;;;0.47;;
33206;SDS011;19565;46.602;11.534;2023-07-29T02:20:46;0.77;;;0.50;;
33206;SDS011;19565;46.602;11.534;2023-07-29T02:23:16;0.60;;;0.60;;
33206;SDS011;19565;46.602;11.534;2023-07-29T02:25:44;0.85;;;0.85;;
33206;SDS011;19565;46.602;11.534;2023-07-29T02:28:13;0.45;;;0.43;;
33206;SDS011;19565;46.602;11.534;2023-07-29T02:30:42;2.15;;;0.75;;
33206;SDS011;19565;46.602;11.534;2023-07-29T02:33:11;0.50;;;0.50;;
33206;SDS011;19565;46.602;11.534;2023-07-29T02:35:39;0.63;;;0.57;;
33206;SDS011;19565;46.602;11.534;2023-07-29T02:38:07;0.95;;;0.73;;
33206;SDS011;19565;46.602;11.534;2023-07-29T02:40:35;0.50;;;0.50;;
33206;SDS011;19565;46.602;11.534;2023-07-29T02:43:05;0.52;;;0.52;;
33206;SDS011;19565;46.602;11.534;2023-07-29T02:45:34;0.60;;;0.50;;
33206;SDS011;19565;46.602;11.534;2023-07-29T02:48:02;0.40;;;0.40;;
33206;SDS011;19565;46.602;11.534;2023-07-29T02:50:31;0.47;;;0.35;;
33206;SDS011;19565;46.602;11.534;2023-07-29T02:52:59;0.70;;;0.70;;
33206;SDS011;19565;46.602;11.534;2023-07-29T02:55:27;1.55;;;0.77;;
33206;SDS011;19565;46.602;11.534;2023-07-29T02:57:55;0.93;;;0.68;;
33206;SDS011;19565;46.602;11.534;2023-07-29T03:00:23;0.93;;;0.63;;
33206;SDS011;19565;46.602;11.534;2023-07-29T03:02:53;2.35;;;0.95;;
33206;SDS011;19565;46.602;11.534;2023-07-29T03:05:21;0.30;;;0.30;;
33206;SDS011;19565;46.602;11.534;2023-07-29T03:07:49;1.20;;;0.63;;
33206;SDS011;19565;46.602;11.534;2023-07-29T03:10:17;0.47;;;0.43;;
33206;SDS011;19565;46.602;11.534;2023-07-29T03:12:45;1.50;;;0.85;;
33206;SDS011;19565;46.602;11.534;2023-07-29T03:15:13;2.72;;;0.90;;
33206;SDS011;19565;46.602;11.534;2023-07-29T03:17:41;0.47;;;0.47;;
33206;SDS011;19565;46.602;11.534;2023-07-29T03:20:11;0.40;;;0.40;;
33206;SDS011;19565;46.602;11.534;2023-07-29T03:22:39;1.80;;;0.98;;
33206;SDS011;19565;46.602;11.534;2023-07-29T03:25:09;0.75;;;0.70;;
33206;SDS011;19565;46.602;11.534;2023-07-29T03:27:37;0.98;;;0.30;;
33206;SDS011;19565;46.602;11.534;2023-07-29T03:30:06;0.40;;;0.40;;
33206;SDS011;19565;46.602;11.534;2023-07-29T03:32:34;0.88;;;0.88;;
33206;SDS011;19565;46.602;11.534;2023-07-29T03:35:02;1.23;;;0.45;;
33206;SDS011;19565;46.602;11.534;2023-07-29T03:37:32;0.40;;;0.40;;
33206;SDS011;19565;46.602;11.534;2023-07-29T03:40:00;0.75;;;0.40;;
33206;SDS011;19565;46.602;11.534;2023-07-29T03:42:30;0.30;;;0.30;;
33206;SDS011;19565;46.602;11.534;2023-07-29T03:44:58;0.60;;;0.60;;
33206;SDS011;19565;46.602;11.534;2023-07-29T03:47:27;0.30;;;0.30;;
33206;SDS011;19565;46.602;11.534;2023-07-29T03:49:55;1.20;;;0.93;;
33206;SDS011;19565;46.602;11.534;2023-07-29T03:52:23;0.63;;;0.63;;
33206;SDS011;19565;46.602;11.534;2023-07-29T03:54:52;0.73;;;0.73;;
33206;SDS011;19565;46.602;11.534;2023-07-29T03:57:20;0.30;;;0.30;;
33206;SDS011;19565;46.602;11.534;2023-07-29T03:59:48;0.75;;;0.75;;
33206;SDS011;19565;46.602;11.534;2023-07-29T04:02:16;0.40;;;0.40;;
33206;SDS011;19565;46.602;11.534;2023-07-29T04:04:44;0.40;;;0.40;;
33206;SDS011;19565;46.602;11.534;2023-07-29T04:07:14;1.17;;;0.52;;
33206;SDS011;19565;46.602;11.534;2023-07-29T04:09:42;0.47;;;0.47;;
33206;SDS011;19565;46.602;11.534;2023-07-29T04:12:12;0.65;;;0.65;;
33206;SDS011;19565;46.602;11.534;2023-07-29T04:14:40;1.27;;;0.65;;
33206;SDS011;19565;46.602;11.534;2023-07-29T04:17:08;1.10;;;1.00;;
33206;SDS011;19565;46.602;11.534;2023-07-29T04:19:36;1.25;;;1.10;;
33206;SDS011;19565;46.602;11.534;2023-07-29T04:22:04;0.40;;;0.40;;
33206;SDS011;19565;46.602;11.534;2023-07-29T04:24:32;0.55;;;0.55;;
33206;SDS011;19565;46.602;11.534;2023-07-29T04:27:01;1.27;;;1.20;;
33206;SDS011;19565;46.602;11.534;2023-07-29T04:29:31;0.43;;;0.43;;
33206;SDS011;19565;46.602;11.534;2023-07-29T04:31:59;0.75;;;0.75;;
33206;SDS011;19565;46.602;11.534;2023-07-29T04:34:28;0.45;;;0.45;;
33206;SDS011;19565;46.602;11.534;2023-07-29T04:36:56;0.30;;;0.30;;
33206;SDS011;19565;46.602;11.534;2023-07-29T04:39:24;0.65;;;0.65;;
33206;SDS011;19565;46.602;11.534;2023-07-29T04:41:52;0.40;;;0.40;;
33206;SDS011;19565;46.602;11.534;2023-07-29T04:44:20;1.10;;;1.02;;
33206;SDS011;19565;46.602;11.534;2023-07-29T04:46:49;0.35;;;0.35;;
33206;SDS011;19565;46.602;11.534;2023-07-29T04:49:17;0.30;;;0.30;;
33206;SDS011;19565;46.602;11.534;2023-07-29T04:51:45;0.30;;;0.30;;
33206;SDS011;19565;46.602;11.534;2023-07-29T04:54:13;0.20;;;0.20;;
33206;SDS011;19565;46.602;11.534;2023-07-29T04:56:41;0.35;;;0.35;;
33206;SDS011;19565;46.602;11.534;2023-07-29T04:59:10;1.63;;;1.23;;
33206;SDS011;19565;46.602;11.534;2023-07-29T05:01:39;0.20;;;0.20;;
33206;SDS011;19565;46.602;11.534;2023-07-29T05:04:10;0.68;;;0.68;;
33206;SDS011;19565;46.602;11.534;2023-07-29T05:06:38;0.57;;;0.57;;
33206;SDS011;19565;46.602;11.534;2023-07-29T05:09:15;0.30;;;0.30;;
33206;SDS011;19565;46.602;11.534;2023-07-29T05:11:44;0.22;;;0.22;;
33206;SDS011;19565;46.602;11.534;2023-07-29T05:14:13;1.10;;;0.85;;
33206;SDS011;19565;46.602;11.534;2023-07-29T05:16:41;0.40;;;0.40;;
33206;SDS011;19565;46.602;11.534;2023-07-29T05:19:11;0.47;;;0.43;;
33206;SDS011;19565;46.602;11.534;2023-07-29T05:21:39;0.40;;;0.40;;
33206;SDS011;19565;46.602;11.534;2023-07-29T05:24:07;0.55;;;0.55;;
33206;SDS011;19565;46.602;11.534;2023-07-29T05:26:35;0.40;;;0.40;;
33206;SDS011;19565;46.602;11.534;2023-07-29T05:29:04;0.38;;;0.30;;
33206;SDS011;19565;46.602;11.534;2023-07-29T05:31:33;1.45;;;0.32;;
33206;SDS011;19565;46.602;11.534;2023-07-29T05:34:01;2.67;;;0.73;;
33206;SDS011;19565;46.602;11.534;2023-07-29T05:36:30;0.28;;;0.28;;
33206;SDS011;19565;46.602;11.534;2023-07-29T05:38:58;0.68;;;0.68;;
33206;SDS011;19565;46.602;11.534;2023-07-29T05:41:26;1.35;;;1.27;;
33206;SDS011;19565;46.602;11.534;2023-07-29T05:43:55;0.40;;;0.40;;
33206;SDS011;19565;46.602;11.534;2023-07-29T05:46:23;1.02;;;0.93;;
33206;SDS011;19565;46.602;11.534;2023-07-29T05:48:51;1.15;;;0.98;;
33206;SDS011;19565;46.602;11.534;2023-07-29T05:51:19;2.15;;;1.02;;
33206;SDS011;19565;46.602;11.534;2023-07-29T05:53:48;0.52;;;0.52;;
33206;SDS011;19565;46.602;11.534;2023-07-29T05:56:16;0.68;;;0.68;;
33206;SDS011;19565;46.602;11.534;2023-07-29T05:58:44;1.58;;;1.10;;
33206;SDS011;19565;46.602;11.534;2023-07-29T06:01:12;0.98;;;0.75;;
33206;SDS011;19565;46.602;11.534;2023-07-29T06:03:40;3.42;;;1.40;;
33206;SDS011;19565;46.602;11.534;2023-07-29T06:06:09;1.40;;;0.80;;
33206;SDS011;19565;46.602;11.534;2023-07-29T06:08:37;1.20;;;1.10;;
33206;SDS011;19565;46.602;11.534;2023-07-29T06:11:06;1.02;;;1.00;;
33206;SDS011;19565;46.602;11.534;2023-07-29T06:13:34;1.13;;;0.90;;
33206;SDS011;19565;46.602;11.534;2023-07-29T06:16:02;0.70;;;0.68;;
33206;SDS011;19565;46.602;11.534;2023-07-29T06:18:30;0.68;;;0.68;;
33206;SDS011;19565;46.602;11.534;2023-07-29T06:20:58;0.55;;;0.50;;
33206;SDS011;19565;46.602;11.534;2023-07-29T06:23:26;0.57;;;0.57;;
33206;SDS011;19565;46.602;11.534;2023-07-29T06:25:54;0.80;;;0.80;;
33206;SDS011;19565;46.602;11.534;2023-07-29T06:28:26;0.88;;;0.85;;
33206;SDS011;19565;46.602;11.534;2023-07-29T06:30:54;0.52;;;0.52;;
33206;SDS011;19565;46.602;11.534;2023-07-29T06:33:22;0.60;;;0.60;;
33206;SDS011;19565;46.602;11.534;2023-07-29T06:35:50;0.90;;;0.80;;
33206;SDS011;19565;46.602;11.534;2023-07-29T06:38:18;1.35;;;1.08;;
33206;SDS011;19565;46.602;11.534;2023-07-29T06:40:50;0.70;;;0.60;;
33206;SDS011;19565;46.602;11.534;2023-07-29T06:43:18;0.65;;;0.65;;
33206;SDS011;19565;46.602;11.534;2023-07-29T06:45:49;0.60;;;0.60;;
33206;SDS011;19565;46.602;11.534;2023-07-29T06:48:17;1.48;;;1.38;;
33206;SDS011;19565;46.602;11.534;2023-07-29T06:50:46;0.50;;;0.50;;
33206;SDS011;19565;46.602;11.534;2023-07-29T06:53:14;0.68;;;0.68;;
33206;SDS011;19565;46.602;11.534;2023-07-29T06:55:42;0.85;;;0.77;;
33206;SDS011;19565;46.602;11.534;2023-07-29T06:58:11;0.77;;;0.70;;
33206;SDS011;19565;46.602;11.534;2023-07-29T07:00:39;1.33;;;1.25;;
33206;SDS011;19565;46.602;11.534;2023-07-29T07:03:08;3.13;;;1.60;;
33206;SDS011;19565;46.602;11.534;2023-07-29T07:05:36;1.90;;;1.80;;
33206;SDS011;19565;46.602;11.534;2023-07-29T07:08:04;2.53;;;2.35;;
33206;SDS011;19565;46.602;11.534;2023-07-29T07:10:32;2.55;;;2.42;;
33206;SDS011;19565;46.602;11.534;2023-07-29T07:13:00;2.50;;;2.40;;
33206;SDS011;19565;46.602;11.534;2023-07-29T07:15:28;2.85;;;2.65;;
33206;SDS011;19565;46.602;11.534;2023-07-29T07:17:56;3.92;;;3.60;;
33206;SDS011;19565;46.602;11.534;2023-07-29T07:20:26;3.72;;;3.53;;
33206;SDS011;19565;46.602;11.534;2023-07-29T07:22:54;3.55;;;3.35;;
33206;SDS011;19565;46.602;11.534;2023-07-29T07:25:22;4.38;;;4.07;;
33206;SDS011;19565;46.602;11.534;2023-07-29T07:27:50;4.47;;;4.18;;
33206;SDS011;19565;46.602;11.534;2023-07-29T07:30:19;3.92;;;3.72;;
33206;SDS011;19565;46.602;11.534;2023-07-29T07:32:47;5.43;;;5.13;;
33206;SDS011;19565;46.602;11.534;2023-07-29T07:35:16;5.20;;;4.90;;
33206;SDS011;19565;46.602;11.534;2023-07-29T07:37:46;5.80;;;5.40;;
33206;SDS011;19565;46.602;11.534;2023-07-29T07:40:14;5.13;;;4.82;;
33206;SDS011;19565;46.602;11.534;2023-07-29T07:42:42;6.55;;;6.15;;
33206;SDS011;19565;46.602;11.534;2023-07-29T07:45:10;6.55;;;6.15;;
33206;SDS011;19565;46.602;11.534;2023-07-29T07:47:38;6.65;;;6.25;;
33206;SDS011;19565;46.602;11.534;2023-07-29T07:50:06;7.38;;;6.68;;
33206;SDS011;19565;46.602;11.534;2023-07-29T07:52:35;6.85;;;6.45;;
33206;SDS011;19565;46.602;11.534;2023-07-29T07:55:04;7.00;;;6.45;;
33206;SDS011;19565;46.602;11.534;2023-07-29T07:57:33;9.05;;;6.97;;
33206;SDS011;19565;46.602;11.534;2023-07-29T08:00:02;7.10;;;6.60;;
33206;SDS011;19565;46.602;11.534;2023-07-29T08:02:31;7.55;;;7.05;;
33206;SDS011;19565;46.602;11.534;2023-07-29T08:05:00;8.40;;;7.90;;
33206;SDS011;19565;46.602;11.534;2023-07-29T08:07:28;9.25;;;8.65;;
33206;SDS011;19565;46.602;11.534;2023-07-29T08:09:56;10.98;;;10.38;;
33206;SDS011;19565;46.602;11.534;2023-07-29T08:12:25;11.43;;;10.73;;
33206;SDS011;19565;46.602;11.534;2023-07-29T08:14:53;11.43;;;10.82;;
33206;SDS011;19565;46.602;11.534;2023-07-29T08:17:21;10.95;;;10.35;;
33206;SDS011;19565;46.602;11.534;2023-07-29T08:19:49;11.38;;;10.77;;
33206;SDS011;19565;46.602;11.534;2023-07-29T08:22:18;11.23;;;10.63;;
33206;SDS011;19565;46.602;11.534;2023-07-29T08:24:46;10.73;;;10.13;;
33206;SDS011;19565;46.602;11.534;2023-07-29T08:27:14;13.52;;;12.82;;
33206;SDS011;19565;46.602;11.534;2023-07-29T08:29:44;12.25;;;11.65;;
33206;SDS011;19565;46.602;11.534;2023-07-29T08:32:12;15.57;;;14.77;;
33206;SDS011;19565;46.602;11.534;2023-07-29T08:34:40;15.02;;;14.32;;
33206;SDS011;19565;46.602;11.534;2023-07-29T08:37:08;16.23;;;15.23;;
33206;SDS011;19565;46.602;11.534;2023-07-29T08:39:36;19.30;;;18.40;;
33206;SDS011;19565;46.602;11.534;2023-07-29T08:42:04;17.20;;;16.40;;
33206;SDS011;19565;46.602;11.534;2023-07-29T08:44:39;16.85;;;16.05;;
33206;SDS011;19565;46.602;11.534;2023-07-29T08:47:10;18.85;;;17.95;;
33206;SDS011;19565;46.602;11.534;2023-07-29T08:49:40;18.50;;;17.50;;
33206;SDS011;19565;46.602;11.534;2023-07-29T08:52:08;21.25;;;20.30;;
33206;SDS011;19565;46.602;11.534;2023-07-29T08:54:37;20.20;;;19.23;;
33206;SDS011;19565;46.602;11.534;2023-07-29T08:57:05;20.27;;;19.38;;
33206;SDS011;19565;46.602;11.534;2023-07-29T08:59:34;23.67;;;22.58;;
33206;SDS011;19565;46.602;11.534;2023-07-29T09:02:02;28.48;;;27.27;;
33206;SDS011;19565;46.602;11.534;2023-07-29T09:04:31;33.42;;;31.92;;
33206;SDS011;19565;46.602;11.534;2023-07-29T09:07:00;41.03;;;39.33;;
33206;SDS011;19565;46.602;11.534;2023-07-29T09:09:28;45.03;;;43.13;;
33206;SDS011;19565;46.602;11.534;2023-07-29T09:11:56;46.85;;;44.92;;
33206;SDS011;19565;46.602;11.534;2023-07-29T09:14:24;49.05;;;47.05;;
33206;SDS011;19565;46.602;11.534;2023-07-29T09:16:52;50.53;;;48.40;;
33206;SDS011;19565;46.602;11.534;2023-07-29T09:19:21;53.35;;;51.15;;
33206;SDS011;19565;46.602;11.534;2023-07-29T09:21:54;54.88;;;52.58;;
33206;SDS011;19565;46.602;11.534;2023-07-29T09:24:22;57.00;;;54.60;;
33206;SDS011;19565;46.602;11.534;2023-07-29T09:26:50;59.08;;;56.58;;
33206;SDS011;19565;46.602;11.534;2023-07-29T09:29:21;61.35;;;58.75;;
33206;SDS011;19565;46.602;11.534;2023-07-29T09:31:50;58.50;;;56.00;;
33206;SDS011;19565;46.602;11.534;2023-07-29T09:34:18;61.53;;;58.92;;
33206;SDS011;19565;46.602;11.534;2023-07-29T09:36:46;60.85;;;58.25;;
33206;SDS011;19565;46.602;11.534;2023-07-29T09:39:20;65.95;;;63.15;;
33206;SDS011;19565;46.602;11.534;2023-07-29T09:41:51;66.43;;;63.63;;
33206;SDS011;19565;46.602;11.534;2023-07-29T09:44:19;65.32;;;62.45;;
33206;SDS011;19565;46.602;11.534;2023-07-29T09:46:47;66.00;;;63.20;;
33206;SDS011;19565;46.602;11.534;2023-07-29T09:49:15;64.57;;;61.88;;
33206;SDS011;19565;46.602;11.534;2023-07-29T09:51:43;65.28;;;62.53;;
33206;SDS011;19565;46.602;11.534;2023-07-29T09:54:11;67.13;;;64.28;;
33206;SDS011;19565;46.602;11.534;2023-07-29T09:56:43;63.22;;;60.55;;
33206;SDS011;19565;46.602;11.534;2023-07-29T09:59:11;68.15;;;65.25;;
33206;SDS011;19565;46.602;11.534;2023-07-29T10:01:41;70.47;;;67.47;;
33206;SDS011;19565;46.602;11.534;2023-07-29T10:04:09;70.13;;;67.13;;
33206;SDS011;19565;46.602;11.534;2023-07-29T10:06:39;68.40;;;65.50;;
33206;SDS011;19565;46.602;11.534;2023-07-29T10:09:09;68.93;;;65.93;;
33206;SDS011;19565;46.602;11.534;2023-07-29T10:11:39;68.40;;;65.50;;
33206;SDS011;19565;46.602;11.534;2023-07-29T10:14:10;69.07;;;66.18;;
33206;SDS011;19565;46.602;11.534;2023-07-29T10:16:39;71.40;;;68.25;;
33206;SDS011;19565;46.602;11.534;2023-07-29T10:19:07;69.95;;;66.95;;
33206;SDS011;19565;46.602;11.534;2023-07-29T10:21:39;68.43;;;65.43;;
33206;SDS011;19565;46.602;11.534;2023-07-29T10:24:11;70.95;;;67.95;;
33206;SDS011;19565;46.602;11.534;2023-07-29T10:26:45;70.85;;;67.85;;
33206;SDS011;19565;46.602;11.534;2023-07-29T10:29:15;70.85;;;67.55;;
33206;SDS011;19565;46.602;11.534;2023-07-29T10:31:47;72.25;;;69.25;;
33206;SDS011;19565;46.602;11.534;2023-07-29T10:34:19;73.38;;;70.28;;
33206;SDS011;19565;46.602;11.534;2023-07-29T10:36:49;73.80;;;70.70;;
33206;SDS011;19565;46.602;11.534;2023-07-29T10:39:19;71.72;;;68.70;;
33206;SDS011;19565;46.602;11.534;2023-07-29T10:41:56;74.68;;;71.57;;
33206;SDS011;19565;46.602;11.534;2023-07-29T10:47:19;76.32;;;73.13;;
33206;SDS011;19565;46.602;11.534;2023-07-29T10:49:49;74.88;;;71.68;;
33206;SDS011;19565;46.602;11.534;2023-07-29T10:52:29;71.88;;;68.88;;
33206;SDS011;19565;46.602;11.534;2023-07-29T10:55:04;68.45;;;65.55;;
33206;SDS011;19565;46.602;11.534;2023-07-29T10:57:51;67.78;;;64.88;;
33206;SDS011;19565;46.602;11.534;2023-07-29T11:00:21;70.05;;;67.15;;
33206;SDS011;19565;46.602;11.534;2023-07-29T11:02:56;71.43;;;68.43;;
33206;SDS011;19565;46.602;11.534;2023-07-29T11:05:41;72.85;;;69.75;;
33206;SDS011;19565;46.602;11.534;2023-07-29T11:08:17;73.00;;;69.93;;
33206;SDS011;19565;46.602;11.534;2023-07-29T11:10:57;72.90;;;69.80;;
33206;SDS011;19565;46.602;11.534;2023-07-29T11:13:29;71.50;;;68.50;;
33206;SDS011;19565;46.602;11.534;2023-07-29T11:16:00;71.90;;;68.90;;
33206;SDS011;19565;46.602;11.534;2023-07-29T11:18:29;69.80;;;66.85;;
33206;SDS011;19565;46.602;11.534;2023-07-29T11:21:00;69.55;;;66.32;;
33206;SDS011;19565;46.602;11.534;2023-07-29T11:23:30;70.75;;;67.80;;
33206;SDS011;19565;46.602;11.534;2023-07-29T11:25:59;73.40;;;70.22;;
33206;SDS011;19565;46.602;11.534;2023-07-29T11:28:28;73.65;;;70.55;;
33206;SDS011;19565;46.602;11.534;2023-07-29T11:30:56;73.85;;;70.75;;
33206;SDS011;19565;46.602;11.534;2023-07-29T11:33:27;76.22;;;73.03;;
33206;SDS011;19565;46.602;11.534;2023-07-29T11:35:56;77.22;;;73.93;;
33206;SDS011;19565;46.602;11.534;2023-07-29T11:38:32;74.55;;;71.45;;
33206;SDS011;19565;46.602;11.534;2023-07-29T11:41:03;72.90;;;69.85;;
33206;SDS011;19565;46.602;11.534;2023-07-29T11:43:34;74.80;;;71.68;;
33206;SDS011;19565;46.602;11.534;2023-07-29T11:46:02;71.75;;;68.75;;
33206;SDS011;19565;46.602;11.534;2023-07-29T11:48:32;63.10;;;60.33;;
33206;SDS011;19565;46.602;11.534;2023-07-29T11:51:00;66.80;;;63.90;;
33206;SDS011;19565;46.602;11.534;2023-07-29T11:53:30;62.78;;;60.17;;
33206;SDS011;19565;46.602;11.534;2023-07-29T11:55:58;62.85;;;60.15;;
33206;SDS011;19565;46.602;11.534;2023-07-29T11:58:27;66.60;;;63.70;;
33206;SDS011;19565;46.602;11.534;2023-07-29T12:00:55;73.93;;;70.72;;
33206;SDS011;19565;46.602;11.534;2023-07-29T12:03:23;74.68;;;71.47;;
33206;SDS011;19565;46.602;11.534;2023-07-29T12:05:53;75.35;;;72.15;;
33206;SDS011;19565;46.602;11.534;2023-07-29T12:08:21;74.97;;;71.78;;
33206;SDS011;19565;46.602;11.534;2023-07-29T12:10:50;72.18;;;69.13;;
33206;SDS011;19565;46.602;11.534;2023-07-29T12:13:18;75.07;;;71.88;;
33206;SDS011;19565;46.602;11.534;2023-07-29T12:15:46;72.57;;;69.47;;
33206;SDS011;19565;46.602;11.534;2023-07-29T12:18:14;72.45;;;69.45;;
33206;SDS011;19565;46.602;11.534;2023-07-29T12:20:43;70.30;;;67.30;;
33206;SDS011;19565;46.602;11.534;2023-07-29T12:23:12;74.95;;;71.80;;
33206;SDS011;19565;46.602;11.534;2023-07-29T12:25:40;74.75;;;71.60;;
33206;SDS011;19565;46.602;11.534;2023-07-29T12:28:08;72.97;;;69.78;;
33206;SDS011;19565;46.602;11.534;2023-07-29T12:30:41;73.65;;;70.45;;
33206;SDS011;19565;46.602;11.534;2023-07-29T12:33:09;74.32;;;71.22;;
33206;SDS011;19565;46.602;11.534;2023-07-29T12:35:37;74.82;;;71.63;;
33206;SDS011;19565;46.602;11.534;2023-07-29T12:38:05;73.80;;;70.70;;
33206;SDS011;19565;46.602;11.534;2023-07-29T12:40:37;72.95;;;69.82;;
33206;SDS011;19565;46.602;11.534;2023-07-29T12:43:06;58.15;;;55.60;;
33206;SDS011;19565;46.602;11.534;2023-07-29T12:45:35;62.70;;;60.03;;
33206;SDS011;19565;46.602;11.534;2023-07-29T12:48:06;65.20;;;62.47;;
33206;SDS011;19565;46.602;11.534;2023-07-29T12:50:34;65.20;;;62.33;;
33206;SDS011;19565;46.602;11.534;2023-07-29T12:53:02;73.70;;;70.57;;
33206;SDS011;19565;46.602;11.534;2023-07-29T12:55:31;66.80;;;63.90;;
33206;SDS011;19565;46.602;11.534;2023-07-29T12:58:00;76.57;;;73.38;;
33206;SDS011;19565;46.602;11.534;2023-07-29T13:00:30;76.25;;;72.95;;
33206;SDS011;19565;46.602;11.534;2023-07-29T13:02:58;83.38;;;79.68;;
33206;SDS011;19565;46.602;11.534;2023-07-29T13:05:26;74.82;;;71.63;;
33206;SDS011;19565;46.602;11.534;2023-07-29T13:07:55;76.40;;;73.07;;
33206;SDS011;19565;46.602;11.534;2023-07-29T13:10:23;74.43;;;71.22;;
33206;SDS011;19565;46.602;11.534;2023-07-29T13:12:51;75.55;;;72.32;;
33206;SDS011;19565;46.602;11.534;2023-07-29T13:15:20;75.25;;;71.85;;
33206;SDS011;19565;46.602;11.534;2023-07-29T13:17:48;76.03;;;72.72;;
33206;SDS011;19565;46.602;11.534;2023-07-29T13:20:16;77.68;;;74.35;;
33206;SDS011;19565;46.602;11.534;2023-07-29T13:22:44;75.97;;;72.68;;
33206;SDS011;19565;46.602;11.534;2023-07-29T13:25:12;76.32;;;72.93;;
33206;SDS011;19565;46.602;11.534;2023-07-29T13:27:40;75.05;;;71.82;;
33206;SDS011;19565;46.602;11.534;2023-07-29T13:30:08;75.45;;;72.25;;
33206;SDS011;19565;46.602;11.534;2023-07-29T13:32:38;76.82;;;73.55;;
33206;SDS011;19565;46.602;11.534;2023-07-29T13:35:06;79.20;;;75.80;;
33206;SDS011;19565;46.602;11.534;2023-07-29T13:37:35;76.07;;;72.88;;
33206;SDS011;19565;46.602;11.534;2023-07-29T13:40:03;77.15;;;73.85;;
33206;SDS011;19565;46.602;11.534;2023-07-29T13:42:32;77.97;;;74.15;;
33206;SDS011;19565;46.602;11.534;2023-07-29T13:45:00;76.32;;;73.03;;
33206;SDS011;19565;46.602;11.534;2023-07-29T13:47:30;72.75;;;69.65;;
33206;SDS011;19565;46.602;11.534;2023-07-29T13:49:59;68.18;;;65.30;;
33206;SDS011;19565;46.602;11.534;2023-07-29T13:52:30;77.68;;;74.22;;
33206;SDS011;19565;46.602;11.534;2023-07-29T13:54:58;69.68;;;66.68;;
33206;SDS011;19565;46.602;11.534;2023-07-29T13:57:26;71.05;;;67.50;;
33206;SDS011;19565;46.602;11.534;2023-07-29T13:59:54;77.93;;;74.63;;
33206;SDS011;19565;46.602;11.534;2023-07-29T14:02:22;73.53;;;70.32;;
33206;SDS011;19565;46.602;11.534;2023-07-29T14:04:50;67.75;;;64.75;;
33206;SDS011;19565;46.602;11.534;2023-07-29T14:07:19;74.78;;;71.57;;
33206;SDS011;19565;46.602;11.534;2023-07-29T14:09:48;70.05;;;67.05;;
33206;SDS011;19565;46.602;11.534;2023-07-29T14:12:16;67.85;;;64.85;;
33206;SDS011;19565;46.602;11.534;2023-07-29T14:14:44;63.90;;;61.10;;
33206;SDS011;19565;46.602;11.534;2023-07-29T14:17:12;65.00;;;62.20;;
33206;SDS011;19565;46.602;11.534;2023-07-29T14:19:40;61.92;;;59.25;;
33206;SDS011;19565;46.602;11.534;2023-07-29T14:22:08;62.85;;;60.15;;
33206;SDS011;19565;46.602;11.534;2023-07-29T14:24:38;62.20;;;59.53;;
33206;SDS011;19565;46.602;11.534;2023-07-29T14:27:06;63.38;;;60.47;;
33206;SDS011;19565;46.602;11.534;2023-07-29T14:29:34;62.85;;;60.15;;
33206;SDS011;19565;46.602;11.534;2023-07-29T14:32:02;60.75;;;58.15;;
33206;SDS011;19565;46.602;11.534;2023-07-29T14:34:30;62.25;;;59.55;;
33206;SDS011;19565;46.602;11.534;2023-07-29T14:36:58;63.42;;;60.60;;